AEA5038 LEMD-LEMG
Flight info
| Callsign | AEA5038 |
|---|---|
| Flight time | N/A |
| Altitude | 31000 |
| Route | VTB N10 CRISA N864 VULPE |
| Aircraft | B738/M-SDE2E3FGHIRWXY/LB1 |
Departure
| Time | 2026-04-30 15:14 |
|---|---|
| Airport | Adolfo Suárez Madrid–Barajas Airport (LEMD) |
Arrival
| Time | N/A |
|---|---|
| Airport | Málaga-Costa del Sol Airport (LEMG) |
| Time | Latitude | Longitude | Altitude | Speed | Heading |
|---|---|---|---|---|---|
| 2026-04-30 13:57 | 40.47311 | -3.57015 | 1988 ft | 0 kts | 244° |
| 2026-04-30 14:06 | 40.47324 | -3.56979 | 1986 ft | 4 kts | 244° |
| 2026-04-30 14:07 | 40.47318 | -3.56929 | 1985 ft | 4 kts | 330° |
| 2026-04-30 14:07 | 40.47293 | -3.56917 | 1987 ft | 4 kts | 355° |
| 2026-04-30 14:07 | 40.47267 | -3.56918 | 1986 ft | 3 kts | 10° |
| 2026-04-30 14:08 | 40.47263 | -3.56918 | 1986 ft | 0 kts | 11° |
| 2026-04-30 14:10 | 40.47264 | -3.56918 | 1986 ft | 1 kts | 11° |
| 2026-04-30 14:11 | 40.47290 | -3.56915 | 1986 ft | 6 kts | 360° |
| 2026-04-30 14:11 | 40.47328 | -3.56933 | 1989 ft | 6 kts | 324° |
| 2026-04-30 14:11 | 40.47362 | -3.56966 | 1988 ft | 6 kts | 323° |
| 2026-04-30 14:11 | 40.47398 | -3.57002 | 1989 ft | 8 kts | 323° |
| 2026-04-30 14:12 | 40.47435 | -3.57060 | 1991 ft | 8 kts | 303° |
| 2026-04-30 14:12 | 40.47470 | -3.57130 | 1992 ft | 10 kts | 303° |
| 2026-04-30 14:12 | 40.47520 | -3.57195 | 1994 ft | 10 kts | 320° |
| 2026-04-30 14:12 | 40.47554 | -3.57236 | 1996 ft | 10 kts | 317° |
| 2026-04-30 14:13 | 40.47623 | -3.57311 | 1998 ft | 10 kts | 323° |
| 2026-04-30 14:13 | 40.47677 | -3.57364 | 2000 ft | 10 kts | 321° |
| 2026-04-30 14:13 | 40.47741 | -3.57431 | 2002 ft | 12 kts | 321° |
| 2026-04-30 14:13 | 40.47811 | -3.57489 | 2003 ft | 12 kts | 357° |
| 2026-04-30 14:14 | 40.47869 | -3.57420 | 2001 ft | 12 kts | 49° |
| 2026-04-30 14:14 | 40.47940 | -3.57433 | 2003 ft | 13 kts | 322° |
| 2026-04-30 14:14 | 40.48021 | -3.57515 | 2000 ft | 17 kts | 322° |
| 2026-04-30 14:14 | 40.48119 | -3.57614 | 1998 ft | 19 kts | 322° |
| 2026-04-30 14:15 | 40.48225 | -3.57721 | 1994 ft | 19 kts | 322° |
| 2026-04-30 14:15 | 40.48328 | -3.57816 | 1991 ft | 18 kts | 346° |
| 2026-04-30 14:15 | 40.48417 | -3.57720 | 1993 ft | 18 kts | 52° |
| 2026-04-30 14:15 | 40.48467 | -3.57581 | 1993 ft | 17 kts | 64° |
| 2026-04-30 14:16 | 40.48573 | -3.57554 | 1993 ft | 16 kts | 353° |
| 2026-04-30 14:16 | 40.48684 | -3.57573 | 1991 ft | 16 kts | 352° |
| 2026-04-30 14:16 | 40.48787 | -3.57613 | 1989 ft | 15 kts | 335° |
| 2026-04-30 14:16 | 40.48858 | -3.57558 | 1988 ft | 15 kts | 87° |
| 2026-04-30 14:17 | 40.48858 | -3.57426 | 1986 ft | 14 kts | 89° |
| 2026-04-30 14:17 | 40.48859 | -3.57293 | 1983 ft | 15 kts | 90° |
| 2026-04-30 14:17 | 40.48867 | -3.57149 | 1983 ft | 16 kts | 62° |
| 2026-04-30 14:17 | 40.48969 | -3.57112 | 1982 ft | 16 kts | 359° |
| 2026-04-30 14:18 | 40.49077 | -3.57113 | 1980 ft | 15 kts | 360° |
| 2026-04-30 14:18 | 40.49171 | -3.57135 | 1982 ft | 9 kts | 312° |
| 2026-04-30 14:18 | 40.49182 | -3.57268 | 1982 ft | 9 kts | 270° |
| 2026-04-30 14:19 | 40.49182 | -3.57342 | 1983 ft | 0 kts | 269° |
| 2026-04-30 15:12 | 40.49182 | -3.57348 | 1983 ft | 2 kts | 269° |
| 2026-04-30 15:13 | 40.49193 | -3.57435 | 1984 ft | 8 kts | 313° |
| 2026-04-30 15:14 | 40.51026 | -3.57458 | 2000 ft | 172 kts | 360° |
| 2026-04-30 15:14 | 40.54789 | -3.57624 | 3893 ft | 200 kts | 357° |
| 2026-04-30 15:16 | 40.62688 | -3.54671 | 6555 ft | 251 kts | 15° |
| 2026-04-30 15:17 | 40.69674 | -3.53576 | 9516 ft | 263 kts | 18° |
| 2026-04-30 15:18 | 40.75849 | -3.43426 | 12724 ft | 293 kts | 45° |
| 2026-04-30 15:19 | 40.81338 | -3.39494 | 13853 ft | 316 kts | 8° |